Terminal Aerodrome Forecast
Issued by NWS

Home | Current Version | Previous Version | Text Only | Print | Product List | Glossary On
Versions: 1 2 3 4 5 6 7 8 9 10 11 12 13 14 15 16
000
FTUS44 KCRP 222300
TAFALI
TAF
KALI 222328Z 2300/2324 09011KT P6SM FEW050
     FM230300 VRB03KT P6SM SCT018 BKN120
      TEMPO 2310/2314 5SM BR
     FM231400 06007KT P6SM SCT040 BKN120=

USA.gov is the U.S. government's official web portal to all federal, state and local government web resources and services.